Time;durP1;ratioP1;P1;durP2;ratioP2;P2;SDS_P1;SDS_P2;PMS_P1;PMS_P2;Temp;Humidity;BMP_temperature;BMP_pressure;BME280_temperature;BME280_humidity;BME280_pressure;Samples;Min_cycle;Max_cycle;Signal;HPM_P1;HPM_P2
2022/12/17 13:06:45;;;;;;;6.40;2.17;;;16.10;99.90;;;;;;4936207;29;20187;-68
2022/12/17 13:09:16;;;;;;;6.53;1.53;;;16.00;99.90;;;;;;4936328;29;20207;-68
2022/12/17 13:12:10;;;;;;;5.73;1.60;;;16.00;99.90;;;;;;4936789;29;20208;-69
2022/12/17 13:14:47;;;;;;;7.40;2.10;;;16.10;99.90;;;;;;4936078;29;20196;-68
2022/12/17 13:17:17;;;;;;;5.10;1.40;;;16.20;99.90;;;;;;4936099;29;20198;-69
2022/12/17 13:19:57;;;;;;;1.87;0.93;;;16.20;99.90;;;;;;4936506;29;20665;-68
2022/12/17 13:22:29;;;;;;;6.90;1.20;;;16.20;99.90;;;;;;4936314;29;20177;-69
2022/12/17 13:25:20;;;;;;;2.63;1.20;;;16.10;99.90;;;;;;4934916;29;20224;-69
2022/12/17 13:27:49;;;;;;;4.27;1.13;;;16.10;99.90;;;;;;4934444;29;20239;-70
2022/12/17 13:30:23;;;;;;;4.87;1.57;;;16.10;99.90;;;;;;4936145;29;20172;-71
2022/12/17 13:33:09;;;;;;;5.93;1.43;;;16.10;99.90;;;;;;4934693;29;20188;-69
2022/12/17 13:35:54;;;;;;;4.77;1.40;;;16.10;99.90;;;;;;4936262;29;20177;-69
2022/12/17 13:38:34;;;;;;;3.20;1.20;;;16.10;99.90;;;;;;4935746;29;20181;-70
2022/12/17 13:41:30;;;;;;;7.93;1.10;;;16.10;99.90;;;;;;4935913;29;20189;-71
2022/12/17 13:44:20;;;;;;;4.27;1.10;;;16.20;99.90;;;;;;4917878;29;20228;-68
2022/12/17 13:46:49;;;;;;;4.33;1.17;;;16.20;99.90;;;;;;4935596;29;20180;-68
2022/12/17 13:49:26;;;;;;;2.33;1.10;;;16.20;99.90;;;;;;4935951;29;20212;-69
2022/12/17 13:52:06;;;;;;;6.23;1.43;;;16.20;99.90;;;;;;4935931;29;20269;-70
2022/12/17 13:54:34;;;;;;;4.37;1.03;;;16.10;99.90;;;;;;4935569;29;20204;-70
2022/12/17 13:57:10;;;;;;;4.10;0.80;;;16.00;99.90;;;;;;4935648;29;20666;-69
2022/12/17 13:59:38;;;;;;;5.70;1.13;;;15.90;99.90;;;;;;4935299;29;20626;-72
2022/12/17 14:02:06;;;;;;;5.70;1.30;;;15.80;99.90;;;;;;4935517;29;20188;-70
2022/12/17 14:04:34;;;;;;;3.27;1.10;;;15.80;99.90;;;;;;4935325;29;20227;-68
2022/12/17 14:07:04;;;;;;;3.70;0.93;;;15.70;99.90;;;;;;4935437;29;20219;-70
2022/12/17 14:09:42;;;;;;;7.03;1.10;;;15.70;99.90;;;;;;4938840;29;20216;-71
2022/12/17 14:12:24;;;;;;;3.07;1.07;;;15.70;99.90;;;;;;4922628;29;20277;-68
2022/12/17 14:15:01;;;;;;;3.53;0.90;;;15.70;99.90;;;;;;4939678;29;20183;-68
2022/12/17 14:17:43;;;;;;;5.70;1.03;;;15.70;99.90;;;;;;4939644;29;20275;-68
2022/12/17 14:20:18;;;;;;;3.90;1.10;;;15.60;99.90;;;;;;4939128;29;20202;-71
2022/12/17 14:23:10;;;;;;;4.93;1.40;;;15.60;99.90;;;;;;4938258;29;20188;-70
2022/12/17 14:25:42;;;;;;;4.10;1.30;;;15.50;99.90;;;;;;4938225;29;20207;-68
2022/12/17 14:28:45;;;;;;;4.80;1.17;;;15.40;99.90;;;;;;4938849;29;20390;-69
2022/12/17 14:31:29;;;;;;;3.63;1.20;;;15.40;99.90;;;;;;4917691;29;20231;-68
2022/12/17 14:34:09;;;;;;;4.27;1.20;;;15.40;99.90;;;;;;4939380;29;20229;-68
2022/12/17 14:36:40;;;;;;;10.10;1.33;;;15.40;99.90;;;;;;4939953;29;20172;-72
2022/12/17 14:39:30;;;;;;;3.80;1.00;;;15.50;99.90;;;;;;4939092;29;20298;-69
2022/12/17 14:42:25;;;;;;;7.23;1.20;;;15.50;99.90;;;;;;4938866;29;20241;-69
2022/12/17 14:44:57;;;;;;;6.17;1.33;;;15.50;99.90;;;;;;4939129;29;20339;-70
2022/12/17 14:47:36;;;;;;;4.27;1.37;;;15.50;99.90;;;;;;4939221;29;20176;-69
2022/12/17 14:50:26;;;;;;;2.63;0.90;;;15.60;99.90;;;;;;4939247;29;20188;-69
2022/12/17 14:52:55;;;;;;;5.13;1.57;;;15.60;99.90;;;;;;4937237;29;20229;-68
2022/12/17 14:55:50;;;;;;;4.47;1.50;;;15.70;99.90;;;;;;4937643;29;20553;-68
2022/12/17 14:58:21;;;;;;;6.17;1.30;;;15.70;99.90;;;;;;4939074;29;20662;-69
2022/12/17 15:01:08;;;;;;;6.87;1.33;;;15.70;99.90;;;;;;4938740;29;20255;-69
2022/12/17 15:03:47;;;;;;;4.30;1.47;;;15.70;99.90;;;;;;4938768;29;20338;-68
2022/12/17 15:06:19;;;;;;;3.53;1.10;;;15.60;99.90;;;;;;4938791;29;20176;-72
2022/12/17 15:08:49;;;;;;;5.57;1.33;;;15.50;99.90;;;;;;4938615;29;20275;-70
2022/12/17 15:11:19;;;;;;;2.43;1.00;;;15.60;99.90;;;;;;4938783;29;20188;-69
2022/12/17 15:13:47;;;;;;;6.77;1.37;;;15.60;99.90;;;;;;4938493;29;20597;-71
2022/12/17 15:16:15;;;;;;;4.67;1.30;;;15.60;99.90;;;;;;4938623;29;20212;-68
2022/12/17 15:18:47;;;;;;;2.70;1.10;;;15.50;99.90;;;;;;4938312;29;20195;-68
2022/12/17 15:21:15;;;;;;;8.57;1.33;;;15.50;99.90;;;;;;4936644;29;20216;-68
2022/12/17 15:23:45;;;;;;;3.43;1.17;;;15.40;99.90;;;;;;4938359;29;20204;-69
2022/12/17 15:26:14;;;;;;;5.07;1.00;;;15.30;99.90;;;;;;4938690;29;20212;-69
2022/12/17 15:28:45;;;;;;;7.40;1.27;;;15.30;99.90;;;;;;4938409;29;20174;-69
2022/12/17 15:31:15;;;;;;;2.80;0.93;;;15.30;99.90;;;;;;4937862;29;20200;-69
2022/12/17 15:33:43;;;;;;;5.13;1.30;;;15.20;99.90;;;;;;4938278;29;20203;-71
2022/12/17 15:36:13;;;;;;;5.67;1.20;;;15.20;99.90;;;;;;4938321;29;20646;-69
2022/12/17 15:38:41;;;;;;;4.93;1.20;;;15.20;99.90;;;;;;4938263;29;20179;-69
2022/12/17 15:43:58;;;;;;;5.73;1.60;;;15.10;99.90;;;;;;4936470;29;20576;-70
2022/12/17 15:46:25;;;;;;;7.33;1.73;;;15.10;99.90;;;;;;4938026;29;20169;-69
2022/12/17 15:48:53;;;;;;;3.47;1.20;;;15.00;99.90;;;;;;4938105;29;20615;-69
2022/12/17 15:51:22;;;;;;;6.07;1.40;;;15.10;99.90;;;;;;4937552;29;20636;-70
2022/12/17 15:53:53;;;;;;;3.77;1.10;;;15.00;99.90;;;;;;4936435;29;20265;-70
2022/12/17 15:56:26;;;;;;;2.30;0.90;;;15.00;99.90;;;;;;4937666;29;20181;-68
2022/12/17 15:58:57;;;;;;;4.23;0.90;;;15.00;99.90;;;;;;4937808;29;20199;-68
2022/12/17 16:01:25;;;;;;;4.90;1.13;;;15.00;99.90;;;;;;4938123;29;20176;-70
2022/12/17 16:03:53;;;;;;;3.03;0.80;;;15.00;99.90;;;;;;4937647;29;20212;-68
2022/12/17 16:06:21;;;;;;;2.77;1.20;;;15.00;99.90;;;;;;4937678;29;20191;-68
2022/12/17 16:08:49;;;;;;;7.90;1.13;;;14.90;99.90;;;;;;4937636;29;20198;-69
2022/12/17 16:11:17;;;;;;;5.93;1.13;;;14.90;99.90;;;;;;4937275;29;20193;-68
2022/12/17 16:13:44;;;;;;;2.00;0.80;;;14.90;99.90;;;;;;4937315;29;20200;-68
2022/12/17 16:16:12;;;;;;;5.63;1.20;;;14.80;99.90;;;;;;4937554;29;20195;-68
2022/12/17 16:18:40;;;;;;;4.77;1.00;;;14.80;99.90;;;;;;4937438;29;20188;-68
2022/12/17 16:21:09;;;;;;;5.57;1.33;;;14.80;99.90;;;;;;4936988;29;20183;-68
2022/12/17 16:23:36;;;;;;;6.30;1.50;;;14.80;99.90;;;;;;4937404;29;20615;-68
2022/12/17 16:26:07;;;;;;;6.70;1.23;;;14.70;99.90;;;;;;4937225;29;20235;-68
2022/12/17 16:28:36;;;;;;;5.20;1.37;;;14.80;99.90;;;;;;4937538;29;20181;-68
2022/12/17 16:31:07;;;;;;;5.07;0.90;;;14.80;99.90;;;;;;4936940;29;20188;-68
2022/12/17 16:33:38;;;;;;;4.00;0.90;;;14.90;99.90;;;;;;4936465;29;20283;-68
2022/12/17 16:36:08;;;;;;;7.27;1.13;;;14.90;99.90;;;;;;4937184;29;20251;-68
2022/12/17 16:38:35;;;;;;;5.63;1.67;;;14.90;99.90;;;;;;4937145;29;20714;-68
2022/12/17 16:41:04;;;;;;;2.97;0.90;;;14.90;99.90;;;;;;4936589;29;20291;-68
2022/12/17 16:43:33;;;;;;;4.83;0.90;;;15.00;99.90;;;;;;4936908;29;20204;-68
2022/12/17 16:46:02;;;;;;;4.63;0.77;;;15.10;99.90;;;;;;4936623;29;20227;-68
2022/12/17 16:48:35;;;;;;;4.43;1.10;;;15.10;99.90;;;;;;4936929;29;20176;-68
2022/12/17 16:51:16;;;;;;;5.17;0.90;;;15.00;99.90;;;;;;4936702;29;20176;-69
2022/12/17 16:53:44;;;;;;;5.00;1.10;;;15.00;99.90;;;;;;4936829;29;20311;-67
2022/12/17 16:56:21;;;;;;;4.67;1.10;;;15.10;99.90;;;;;;4936449;29;20183;-67
2022/12/17 16:58:49;;;;;;;4.30;0.97;;;15.10;99.90;;;;;;4936769;29;20203;-68
2022/12/17 17:01:22;;;;;;;3.63;1.03;;;15.20;99.90;;;;;;4936396;29;20208;-68
2022/12/17 17:03:50;;;;;;;3.43;0.80;;;15.20;99.90;;;;;;4936240;29;20213;-68
2022/12/17 17:06:19;;;;;;;4.43;0.90;;;15.20;99.90;;;;;;4936660;29;20260;-67
2022/12/17 17:08:48;;;;;;;6.73;2.23;;;15.30;99.90;;;;;;4936199;29;20180;-68
2022/12/17 17:11:20;;;;;;;7.27;1.07;;;15.20;99.90;;;;;;4936548;29;20662;-68
2022/12/17 17:13:50;;;;;;;4.67;1.20;;;15.30;99.90;;;;;;4936137;29;20180;-68
2022/12/17 17:16:20;;;;;;;10.17;1.70;;;15.30;99.90;;;;;;4936420;29;20188;-68
2022/12/17 17:18:48;;;;;;;2.43;0.83;;;15.40;99.90;;;;;;4936487;29;20176;-68
2022/12/17 17:21:22;;;;;;;5.33;1.20;;;15.30;99.90;;;;;;4935930;29;20271;-71
2022/12/17 17:23:52;;;;;;;3.90;1.53;;;15.30;99.90;;;;;;4936756;29;20218;-68
2022/12/17 17:26:20;;;;;;;2.90;1.10;;;15.40;99.90;;;;;;4936379;29;20177;-68
2022/12/17 17:28:49;;;;;;;3.53;0.90;;;15.40;99.90;;;;;;4936018;29;20191;-68
2022/12/17 17:31:18;;;;;;;5.23;1.00;;;15.40;99.90;;;;;;4935754;29;20176;-73
2022/12/17 17:33:48;;;;;;;6.73;1.23;;;15.40;99.90;;;;;;4935660;29;20184;-72
2022/12/17 17:36:35;;;;;;;5.43;1.17;;;15.40;99.90;;;;;;4936198;29;20243;-72
2022/12/17 17:39:03;;;;;;;8.47;1.10;;;15.40;99.90;;;;;;4935991;29;20673;-68
2022/12/17 17:41:32;;;;;;;3.63;0.80;;;15.30;99.90;;;;;;4936153;29;20188;-68
2022/12/17 17:44:03;;;;;;;4.20;1.07;;;15.30;99.90;;;;;;4935743;29;20585;-68
2022/12/17 17:46:31;;;;;;;5.80;1.00;;;15.40;99.90;;;;;;4936047;29;20191;-67
2022/12/17 17:49:01;;;;;;;3.23;1.10;;;15.40;99.90;;;;;;4935806;29;20599;-67
2022/12/17 17:51:32;;;;;;;5.67;1.10;;;15.40;99.90;;;;;;4935667;29;20179;-70
2022/12/17 17:54:01;;;;;;;5.53;1.60;;;15.40;99.90;;;;;;4936013;29;20311;-68
2022/12/17 17:56:34;;;;;;;3.20;0.97;;;15.40;99.90;;;;;;4936088;29;20180;-69
2022/12/17 17:59:09;;;;;;;5.13;1.10;;;15.30;99.90;;;;;;4935852;29;20559;-68
2022/12/17 18:01:43;;;;;;;4.43;1.10;;;15.30;99.90;;;;;;4935658;29;20540;-68
2022/12/17 18:04:13;;;;;;;4.80;0.80;;;15.30;99.90;;;;;;4935795;29;20212;-68
2022/12/17 18:06:42;;;;;;;3.53;1.10;;;15.30;99.90;;;;;;4935622;29;20172;-68
2022/12/17 18:09:11;;;;;;;3.87;1.00;;;15.30;99.90;;;;;;4936240;29;20179;-67
2022/12/17 18:11:41;;;;;;;6.03;1.23;;;15.30;99.90;;;;;;4935521;29;20181;-67
2022/12/17 18:14:11;;;;;;;2.63;1.00;;;15.30;99.90;;;;;;4935505;29;20181;-68
2022/12/17 18:16:45;;;;;;;1.00;0.60;;;15.30;99.90;;;;;;4935786;29;20183;-67
2022/12/17 18:19:18;;;;;;;2.00;0.83;;;15.30;99.90;;;;;;4935416;29;20268;-74
2022/12/17 18:21:47;;;;;;;1.10;0.67;;;15.40;99.90;;;;;;4934206;29;20196;-73
2022/12/17 18:24:24;;;;;;;3.37;0.70;;;15.30;99.90;;;;;;4935485;29;20224;-69
2022/12/17 18:26:52;;;;;;;1.17;0.60;;;15.30;99.90;;;;;;4935894;29;20180;-69
2022/12/17 18:29:27;;;;;;;2.90;0.73;;;15.30;99.90;;;;;;4935675;29;20180;-68
2022/12/17 18:31:55;;;;;;;3.67;0.80;;;15.30;99.90;;;;;;4916685;29;20193;-68
2022/12/17 18:34:26;;;;;;;3.70;1.17;;;15.30;99.90;;;;;;4917131;29;20292;-71
2022/12/17 18:36:54;;;;;;;2.80;0.80;;;15.30;99.90;;;;;;4935518;29;20275;-70
2022/12/17 18:39:24;;;;;;;4.07;1.10;;;15.30;99.90;;;;;;4935069;29;20596;-71
2022/12/17 18:44:41;;;;;;;2.93;1.10;;;15.30;99.90;;;;;;4935350;29;20312;-68
2022/12/17 18:47:10;;;;;;;3.83;0.90;;;15.20;99.90;;;;;;4935316;29;20187;-69
2022/12/17 18:49:38;;;;;;;4.80;0.80;;;15.30;99.90;;;;;;4935011;29;20259;-70
2022/12/17 18:52:06;;;;;;;2.50;0.60;;;15.30;99.90;;;;;;4935153;29;20185;-72
2022/12/17 18:54:34;;;;;;;3.73;0.87;;;15.30;99.90;;;;;;4935345;29;20280;-69
2022/12/17 18:57:02;;;;;;;2.90;0.97;;;15.30;99.90;;;;;;4938577;29;20270;-68
2022/12/17 18:59:31;;;;;;;4.87;0.90;;;15.30;99.90;;;;;;4938551;29;20915;-67
2022/12/17 19:02:00;;;;;;;1.87;0.60;;;15.30;99.90;;;;;;4938685;29;20198;-69
2022/12/17 19:04:28;;;;;;;1.73;0.60;;;15.30;99.90;;;;;;4936849;29;20216;-68
2022/12/17 19:06:55;;;;;;;3.23;0.93;;;15.20;99.90;;;;;;4938810;29;20173;-67
2022/12/17 19:09:30;;;;;;;4.03;1.30;;;15.20;99.90;;;;;;4938354;29;20184;-68
2022/12/17 19:11:57;;;;;;;0.60;0.60;;;15.10;99.90;;;;;;4938630;29;20255;-69
2022/12/17 19:14:25;;;;;;;3.07;0.80;;;15.10;99.90;;;;;;4938480;29;20283;-68
2022/12/17 19:16:56;;;;;;;3.50;1.00;;;15.00;99.90;;;;;;4938491;29;20178;-68
2022/12/17 19:19:25;;;;;;;2.23;0.70;;;15.00;99.90;;;;;;4938229;29;20185;-68
2022/12/17 19:21:54;;;;;;;2.73;0.83;;;15.00;99.90;;;;;;4938524;29;20198;-68
2022/12/17 19:24:23;;;;;;;2.30;0.80;;;15.00;99.90;;;;;;4938047;29;20227;-68
2022/12/17 19:26:51;;;;;;;1.37;0.77;;;15.10;99.90;;;;;;4938266;29;20185;-68
2022/12/17 19:29:20;;;;;;;5.43;0.87;;;15.20;99.90;;;;;;4936774;29;20673;-68
2022/12/17 19:31:49;;;;;;;2.93;0.80;;;15.30;99.90;;;;;;4938185;29;20177;-71
2022/12/17 19:34:18;;;;;;;2.50;0.70;;;15.30;99.90;;;;;;4938219;29;20184;-69
2022/12/17 19:36:47;;;;;;;2.63;0.97;;;15.40;99.90;;;;;;4938560;29;20192;-69
2022/12/17 19:39:18;;;;;;;2.53;0.60;;;15.40;99.90;;;;;;4937980;29;20185;-68
2022/12/17 19:41:46;;;;;;;3.37;0.70;;;15.40;99.90;;;;;;4919160;29;20188;-72
2022/12/17 19:44:15;;;;;;;4.60;1.17;;;15.50;99.90;;;;;;4923626;29;20224;-67
2022/12/17 19:46:44;;;;;;;2.47;0.80;;;15.40;99.90;;;;;;4942833;29;20630;-67
2022/12/17 19:49:14;;;;;;;3.97;1.63;;;15.30;99.90;;;;;;4942135;29;20288;-67
2022/12/17 19:51:43;;;;;;;4.37;0.90;;;15.20;99.90;;;;;;4938774;29;20180;-68
2022/12/17 19:54:13;;;;;;;2.50;0.90;;;15.30;99.90;;;;;;4935387;29;20239;-67
2022/12/17 19:56:42;;;;;;;2.73;0.60;;;15.30;99.90;;;;;;4944283;29;20188;-71
2022/12/17 19:59:11;;;;;;;6.83;1.37;;;15.30;99.90;;;;;;4955608;29;20211;-67
2022/12/17 20:01:44;;;;;;;5.50;0.80;;;15.30;99.90;;;;;;4940408;29;20188;-67
2022/12/17 20:04:13;;;;;;;4.93;0.77;;;15.40;99.90;;;;;;4936448;29;20300;-67
2022/12/17 20:06:42;;;;;;;2.43;0.70;;;15.50;99.90;;;;;;4937143;28;20275;-73
2022/12/17 20:09:10;;;;;;;4.90;0.87;;;15.60;99.90;;;;;;4935351;29;20184;-68
2022/12/17 20:11:38;;;;;;;2.40;0.70;;;15.80;99.90;;;;;;4935877;29;20204;-67
2022/12/17 20:14:29;;;;;;;3.33;0.90;;;16.00;99.90;;;;;;4936284;29;20177;-67
2022/12/17 20:16:59;;;;;;;2.60;0.90;;;16.10;99.90;;;;;;4935741;29;20194;-72
2022/12/17 20:19:33;;;;;;;2.17;0.80;;;16.20;99.90;;;;;;4935866;29;21010;-72
2022/12/17 20:22:03;;;;;;;2.90;1.00;;;16.20;99.90;;;;;;4935710;29;20197;-67
2022/12/17 20:24:31;;;;;;;6.17;0.80;;;16.30;99.90;;;;;;4935421;29;20349;-67
2022/12/17 20:27:00;;;;;;;3.57;0.70;;;16.40;99.90;;;;;;4932951;29;20785;-67
2022/12/17 20:29:28;;;;;;;2.50;0.60;;;16.40;99.90;;;;;;4935714;29;20192;-69
2022/12/17 20:31:56;;;;;;;3.23;0.80;;;16.40;99.90;;;;;;4935352;29;20239;-68
2022/12/17 20:34:25;;;;;;;1.23;0.47;;;16.40;99.90;;;;;;4935504;29;20184;-68
2022/12/17 20:36:53;;;;;;;7.00;1.20;;;16.40;99.90;;;;;;4935881;29;20267;-68
2022/12/17 20:39:22;;;;;;;4.40;0.90;;;16.40;99.90;;;;;;4935234;29;20183;-73
2022/12/17 20:41:50;;;;;;;4.10;0.87;;;16.40;99.90;;;;;;4935419;29;20555;-68
2022/12/17 20:44:18;;;;;;;1.50;0.90;;;16.50;99.90;;;;;;4935845;29;20216;-69
2022/12/17 20:46:45;;;;;;;0.73;0.60;;;16.60;99.90;;;;;;4935265;29;20646;-70
2022/12/17 20:49:14;;;;;;;4.73;0.87;;;16.80;99.90;;;;;;4935313;29;20210;-69
2022/12/17 20:51:41;;;;;;;3.57;1.00;;;16.90;99.90;;;;;;4933846;29;20203;-67
2022/12/17 20:54:10;;;;;;;2.37;0.70;;;17.00;99.90;;;;;;4934204;29;20609;-69
2022/12/17 20:56:39;;;;;;;4.87;1.00;;;17.20;99.90;;;;;;4932541;29;20655;-68
2022/12/17 20:59:09;;;;;;;2.13;0.73;;;17.30;99.90;;;;;;4933715;29;20192;-68
2022/12/17 21:01:37;;;;;;;2.00;1.00;;;17.40;99.90;;;;;;4933853;29;20189;-68
2022/12/17 21:04:06;;;;;;;3.53;1.00;;;17.40;99.90;;;;;;4935143;29;20670;-68
2022/12/17 21:06:40;;;;;;;3.50;1.03;;;17.40;99.90;;;;;;4934867;29;20188;-67
2022/12/17 21:09:09;;;;;;;1.73;0.63;;;17.50;99.90;;;;;;4941695;29;20197;-68
2022/12/17 21:11:38;;;;;;;1.03;0.50;;;17.50;99.90;;;;;;4951322;29;20630;-68
2022/12/17 21:14:13;;;;;;;3.10;1.03;;;17.50;99.90;;;;;;4934196;29;20194;-68
2022/12/17 21:16:42;;;;;;;1.43;0.80;;;17.60;99.90;;;;;;4933115;29;20182;-70
2022/12/17 21:19:16;;;;;;;4.00;0.77;;;17.60;99.90;;;;;;4933795;29;20303;-68
2022/12/17 21:21:44;;;;;;;1.23;0.40;;;17.80;99.90;;;;;;4934358;29;20264;-68
2022/12/17 21:24:12;;;;;;;2.27;0.87;;;17.70;99.90;;;;;;4938496;29;20266;-69
2022/12/17 21:26:42;;;;;;;0.93;0.53;;;17.80;99.90;;;;;;4936586;29;20212;-68
2022/12/17 21:29:11;;;;;;;0.67;0.50;;;17.80;99.90;;;;;;4937111;29;20176;-69
2022/12/17 21:31:44;;;;;;;4.07;1.53;;;17.90;99.90;;;;;;4923699;29;20639;-67
2022/12/17 21:34:20;;;;;;;0.87;0.40;;;17.80;99.90;;;;;;4926426;29;20561;-69
2022/12/17 21:36:49;;;;;;;1.00;0.87;;;17.90;99.90;;;;;;4932600;29;20268;-69
2022/12/17 21:39:18;;;;;;;0.87;0.40;;;17.90;99.90;;;;;;4934829;29;20245;-68
2022/12/17 21:43:00;;;;;;;1.00;0.40;;;18.10;99.90;;;;;;4933165;29;20231;-69
2022/12/17 21:44:33;;;;;;;1.20;0.40;;;18.20;99.90;;;;;;4935238;29;20623;-69
2022/12/17 21:47:01;;;;;;;0.77;0.40;;;18.20;99.90;;;;;;4936291;29;20265;-68
2022/12/17 21:49:29;;;;;;;2.43;0.50;;;18.30;99.90;;;;;;4927289;29;20195;-70
2022/12/17 21:51:58;;;;;;;1.70;0.93;;;18.50;99.90;;;;;;4932429;29;20207;-69
2022/12/17 21:54:25;;;;;;;0.40;0.40;;;18.50;99.90;;;;;;4933678;29;20651;-70
2022/12/17 21:56:53;;;;;;;0.60;0.40;;;18.50;99.90;;;;;;4935212;29;20185;-69
2022/12/17 21:59:21;;;;;;;2.63;0.53;;;18.30;99.90;;;;;;4933539;29;20211;-70
2022/12/17 22:01:49;;;;;;;0.50;0.50;;;18.50;99.90;;;;;;4933281;29;20189;-68
2022/12/17 22:04:17;;;;;;;0.67;0.40;;;18.50;99.90;;;;;;4934480;29;20690;-73
2022/12/17 22:06:45;;;;;;;2.30;0.53;;;18.50;99.90;;;;;;4934203;29;20244;-70
2022/12/17 22:09:12;;;;;;;4.43;0.63;;;18.50;99.90;;;;;;4934368;29;20192;-69
2022/12/17 22:11:40;;;;;;;2.40;0.50;;;18.80;99.90;;;;;;4934478;29;20194;-69
2022/12/17 22:14:11;;;;;;;3.57;0.60;;;19.30;99.90;;;;;;4934033;29;20188;-68
2022/12/17 22:16:47;;;;;;;0.77;0.50;;;19.40;99.90;;;;;;4915522;29;20181;-68
2022/12/17 22:19:20;;;;;;;0.40;0.40;;;19.50;99.90;;;;;;4917116;29;20700;-70
2022/12/17 22:21:48;;;;;;;1.37;0.50;;;19.70;99.90;;;;;;4934028;29;20176;-70
2022/12/17 22:24:19;;;;;;;1.13;0.93;;;19.40;99.90;;;;;;4934383;29;20692;-73
2022/12/17 22:26:47;;;;;;;1.20;0.40;;;19.70;99.90;;;;;;4934244;29;20197;-68
2022/12/17 22:32:58;;;;;;;1.37;0.30;;;20.20;99.90;;;;;;4933264;29;20196;-73
2022/12/17 22:34:49;;;;;;;0.30;0.30;;;20.00;99.90;;;;;;4938487;29;20196;-69
2022/12/17 22:37:16;;;;;;;0.63;0.33;;;20.40;99.90;;;;;;4937360;29;20243;-72
2022/12/17 22:39:44;;;;;;;3.20;0.40;;;20.50;99.90;;;;;;4937565;29;20192;-69
2022/12/17 22:44:58;;;;;;;0.93;0.30;;;21.10;99.90;;;;;;4937228;29;20224;-68
2022/12/17 22:47:26;;;;;;;2.43;0.40;;;20.80;99.90;;;;;;4937672;29;20208;-68
2022/12/17 22:49:53;;;;;;;0.30;0.30;;;20.70;99.90;;;;;;4937941;29;20734;-68
2022/12/17 22:52:21;;;;;;;0.50;0.30;;;21.10;99.90;;;;;;4937236;29;20318;-74
2022/12/17 22:54:49;;;;;;;1.07;0.33;;;21.60;99.90;;;;;;4937655;29;20198;-72
2022/12/17 22:57:17;;;;;;;0.30;0.30;;;22.10;99.90;;;;;;4937680;29;20191;-72
2022/12/17 22:59:45;;;;;;;0.33;0.30;;;21.90;99.90;;;;;;4937140;29;20191;-69
2022/12/17 23:02:12;;;;;;;0.43;0.30;;;21.40;99.90;;;;;;4937431;29;20585;-71
2022/12/17 23:04:41;;;;;;;0.97;0.43;;;20.70;99.90;;;;;;4937119;29;20219;-68
2022/12/17 23:07:09;;;;;;;2.00;0.57;;;20.40;99.90;;;;;;4936432;29;20244;-67
2022/12/17 23:09:36;;;;;;;0.70;0.30;;;20.30;99.90;;;;;;4937258;29;20188;-68
2022/12/17 23:14:50;;;;;;;0.30;0.30;;;20.40;99.90;;;;;;4936599;29;20677;-68
2022/12/17 23:17:18;;;;;;;0.77;0.30;;;20.90;99.90;;;;;;4937028;29;20179;-68
2022/12/17 23:19:45;;;;;;;0.30;0.30;;;21.00;99.90;;;;;;4937216;29;20597;-68
2022/12/17 23:22:13;;;;;;;0.60;0.30;;;20.80;99.90;;;;;;4936746;29;20230;-71
2022/12/17 23:24:41;;;;;;;0.50;0.40;;;21.00;99.90;;;;;;4936330;29;20240;-75
2022/12/17 23:27:09;;;;;;;0.30;0.30;;;21.20;99.90;;;;;;4936954;29;20187;-73
2022/12/17 23:29:36;;;;;;;0.30;0.30;;;21.60;99.90;;;;;;4935711;29;20234;-72
2022/12/17 23:32:04;;;;;;;1.37;0.50;;;21.70;99.90;;;;;;4937250;29;20172;-72
2022/12/17 23:34:32;;;;;;;3.57;0.37;;;21.90;99.90;;;;;;4936607;29;20268;-72
2022/12/17 23:37:00;;;;;;;0.40;0.20;;;22.10;99.90;;;;;;4936083;29;20181;-73
2022/12/17 23:39:28;;;;;;;0.20;0.20;;;22.10;99.90;;;;;;4936207;29;20271;-72
2022/12/17 23:41:56;;;;;;;0.33;0.33;;;21.80;99.90;;;;;;4936700;29;20238;-68
2022/12/17 23:44:24;;;;;;;0.30;0.30;;;21.30;99.90;;;;;;4936260;29;20208;-68
2022/12/17 23:46:51;;;;;;;0.90;0.40;;;21.30;99.90;;;;;;4936292;29;20331;-68
2022/12/17 23:49:19;;;;;;;0.83;0.50;;;21.90;99.90;;;;;;4935825;29;20186;-74
2022/12/17 23:51:47;;;;;;;0.67;0.50;;;22.40;99.90;;;;;;4936736;29;20220;-70
2022/12/17 23:54:15;;;;;;;0.30;0.30;;;23.10;99.90;;;;;;4935514;29;20224;-68
2022/12/17 23:56:44;;;;;;;1.50;0.30;;;23.80;99.90;;;;;;4935626;29;20188;-66
2022/12/17 23:59:12;;;;;;;0.20;0.20;;;23.60;99.90;;;;;;4935107;29;20204;-67
